Time;durP1;ratioP1;P1;durP2;ratioP2;P2;SDS_P1;SDS_P2;PMS_P1;PMS_P2;Temp;Humidity;BMP_temperature;BMP_pressure;BME280_temperature;BME280_humidity;BME280_pressure;Samples;Min_cycle;Max_cycle;Signal;HPM_P1;HPM_P2
2022/01/31 00:00:25;;;;;;;;;;;6.50;99.90;;;;;;5137262;27;20105;-78
2022/01/31 00:02:50;;;;;;;;;;;6.50;99.90;;;;;;5136315;27;19914;-78
2022/01/31 00:05:16;;;;;;;;;;;6.50;99.90;;;;;;5136972;27;19911;-78
2022/01/31 00:07:42;;;;;;;;;;;6.50;99.90;;;;;;5117612;27;19998;-78
2022/01/31 00:10:10;;;;;;;;;;;6.50;99.90;;;;;;5136441;27;19953;-79
2022/01/31 00:12:47;;;;;;;;;;;6.50;99.90;;;;;;5136149;27;19975;-76
2022/01/31 00:15:13;;;;;;;;;;;6.60;99.90;;;;;;5136393;27;19907;-78
2022/01/31 00:17:39;;;;;;;;;;;6.60;99.90;;;;;;5135379;27;20018;-79
2022/01/31 00:20:04;;;;;;;;;;;6.60;99.90;;;;;;5136284;27;19922;-77
2022/01/31 00:22:30;;;;;;;;;;;6.60;99.90;;;;;;5136147;27;20262;-79
2022/01/31 00:24:56;;;;;;;;;;;6.60;99.90;;;;;;5117305;27;19918;-79
2022/01/31 00:27:21;;;;;;;;;;;6.60;99.90;;;;;;5136291;27;19908;-79
2022/01/31 00:29:47;;;;;;;;;;;6.60;99.90;;;;;;5135412;27;19907;-79
2022/01/31 00:32:12;;;;;;;;;;;6.60;99.90;;;;;;5136180;27;19994;-78
2022/01/31 00:34:39;;;;;;;;;;;6.50;99.90;;;;;;5138801;27;20370;-78
2022/01/31 00:37:05;;;;;;;;;;;6.50;99.90;;;;;;5122366;27;20403;-78
2022/01/31 00:39:34;;;;;;;;;;;6.40;99.90;;;;;;5138939;27;19912;-79
2022/01/31 00:41:59;;;;;;;;;;;6.40;99.90;;;;;;5139575;27;19957;-78
2022/01/31 00:44:38;;;;;;;;;;;6.40;99.90;;;;;;5136316;27;19951;-79
2022/01/31 00:47:15;;;;;;;;;;;6.30;99.90;;;;;;5135527;27;19908;-78
2022/01/31 00:49:48;;;;;;;;;;;6.30;99.90;;;;;;5134714;27;19935;-79
2022/01/31 00:52:13;;;;;;;;;;;6.30;99.90;;;;;;5134575;28;20353;-78
2022/01/31 00:54:39;;;;;;;;;;;6.30;99.90;;;;;;5134028;28;19936;-78
2022/01/31 00:57:05;;;;;;;;;;;6.30;99.90;;;;;;5134250;28;20403;-80
2022/01/31 00:59:30;;;;;;;;;;;6.20;99.90;;;;;;5116349;28;19911;-79
2022/01/31 01:01:56;;;;;;;;;;;6.30;99.90;;;;;;5115576;28;19943;-80
2022/01/31 01:04:21;;;;;;;;;;;6.30;99.90;;;;;;5134102;28;20348;-76
2022/01/31 01:06:47;;;;;;;;;;;6.30;99.90;;;;;;5133502;27;19946;-80
2022/01/31 01:09:12;;;;;;;;;;;6.30;99.90;;;;;;5134700;28;19915;-78
2022/01/31 01:11:38;;;;;;;;;;;6.30;99.90;;;;;;5133645;28;19908;-75
2022/01/31 01:14:04;;;;;;;;;;;6.40;99.90;;;;;;5134649;28;19919;-78
2022/01/31 01:16:30;;;;;;;;;;;6.30;99.90;;;;;;5134359;28;19987;-78
2022/01/31 01:18:56;;;;;;;;;;;6.30;99.90;;;;;;5133397;28;19948;-77
2022/01/31 01:21:21;;;;;;;;;;;6.30;99.90;;;;;;5134372;28;19911;-79
2022/01/31 01:23:47;;;;;;;;;;;6.30;99.90;;;;;;5133357;28;20371;-78
2022/01/31 01:26:12;;;;;;;;;;;6.30;99.90;;;;;;5134256;28;19915;-78
2022/01/31 01:28:38;;;;;;;;;;;6.30;99.90;;;;;;5133688;28;19908;-75
2022/01/31 01:31:03;;;;;;;;;;;6.20;99.90;;;;;;5133986;28;19966;-78
2022/01/31 01:33:36;;;;;;;;;;;6.20;99.90;;;;;;5134679;28;19915;-78
2022/01/31 01:36:04;;;;;;;;;;;6.20;99.90;;;;;;5134158;28;19908;-77
2022/01/31 01:38:30;;;;;;;;;;;6.20;99.90;;;;;;5134410;28;19919;-77
2022/01/31 01:40:59;;;;;;;;;;;6.20;99.90;;;;;;5115304;28;19941;-77
2022/01/31 01:43:25;;;;;;;;;;;6.20;99.90;;;;;;5134646;28;19917;-77
2022/01/31 01:45:51;;;;;;;;;;;6.20;99.90;;;;;;5133686;28;19907;-78
2022/01/31 01:48:17;;;;;;;;;;;6.20;99.90;;;;;;5134485;28;19960;-78
2022/01/31 01:50:43;;;;;;;;;;;6.10;99.90;;;;;;5047397;28;2184258;-79
2022/01/31 01:53:08;;;;;;;;;;;6.10;99.90;;;;;;5114317;28;20349;-79
2022/01/31 01:55:35;;;;;;;;;;;6.20;99.90;;;;;;5114658;28;19924;-78
2022/01/31 01:58:00;;;;;;;;;;;6.20;99.90;;;;;;5113726;28;20132;-77
2022/01/31 02:00:28;;;;;;;;;;;6.20;99.90;;;;;;5117769;28;20361;-78
2022/01/31 02:02:54;;;;;;;;;;;6.20;99.90;;;;;;5115377;28;19908;-78
2022/01/31 02:05:20;;;;;;;;;;;6.20;99.90;;;;;;5114711;28;19912;-78
2022/01/31 02:07:46;;;;;;;;;;;6.20;99.90;;;;;;5113501;28;19916;-77
2022/01/31 02:10:12;;;;;;;;;;;6.20;99.90;;;;;;5114570;28;19912;-77
2022/01/31 02:12:46;;;;;;;;;;;6.20;99.90;;;;;;5114331;28;19943;-76
2022/01/31 02:15:12;;;;;;;;;;;6.20;99.90;;;;;;5114512;28;19915;-78
2022/01/31 02:17:37;;;;;;;;;;;6.20;99.90;;;;;;5113471;28;20322;-78
2022/01/31 02:20:04;;;;;;;;;;;6.10;99.90;;;;;;5113541;28;19912;-78
2022/01/31 02:22:29;;;;;;;;;;;6.10;99.90;;;;;;5114028;28;19990;-78
2022/01/31 02:24:55;;;;;;;;;;;6.10;99.90;;;;;;5112996;28;19950;-78
2022/01/31 02:27:28;;;;;;;;;;;6.10;99.90;;;;;;5114416;28;19908;-78
2022/01/31 02:29:53;;;;;;;;;;;6.10;99.90;;;;;;5113168;28;19955;-78
2022/01/31 02:32:20;;;;;;;;;;;6.10;99.90;;;;;;5114256;28;19947;-78
2022/01/31 02:34:46;;;;;;;;;;;6.10;99.90;;;;;;5095019;28;19952;-77
2022/01/31 02:37:12;;;;;;;;;;;6.10;99.90;;;;;;5113904;28;19923;-78
2022/01/31 02:39:38;;;;;;;;;;;6.10;99.90;;;;;;5095728;28;20276;-78
2022/01/31 02:42:04;;;;;;;;;;;6.10;99.90;;;;;;5112831;28;19908;-77
2022/01/31 02:44:29;;;;;;;;;;;6.10;99.90;;;;;;5113855;28;19908;-77
2022/01/31 02:46:56;;;;;;;;;;;6.10;99.90;;;;;;5112975;28;20449;-77
2022/01/31 02:49:25;;;;;;;;;;;6.10;99.90;;;;;;5113616;28;19930;-77
2022/01/31 02:51:58;;;;;;;;;;;6.00;99.90;;;;;;5112597;28;20390;-77
2022/01/31 02:54:24;;;;;;;;;;;6.00;99.90;;;;;;5113729;28;20276;-77
2022/01/31 02:56:50;;;;;;;;;;;5.90;99.90;;;;;;5112926;28;19914;-77
2022/01/31 02:59:15;;;;;;;;;;;5.90;99.90;;;;;;5113381;28;19915;-77
2022/01/31 03:01:41;;;;;;;;;;;5.90;99.90;;;;;;5113477;28;19907;-75
2022/01/31 03:04:07;;;;;;;;;;;5.90;99.90;;;;;;5112975;28;19908;-78
2022/01/31 03:06:33;;;;;;;;;;;5.90;99.90;;;;;;5113371;28;19960;-78
2022/01/31 03:08:58;;;;;;;;;;;5.90;99.90;;;;;;5112766;28;19912;-78
2022/01/31 03:11:24;;;;;;;;;;;5.90;99.90;;;;;;5113536;28;19911;-78
2022/01/31 03:13:50;;;;;;;;;;;5.80;99.90;;;;;;5112486;28;20322;-78
2022/01/31 03:16:15;;;;;;;;;;;5.80;99.90;;;;;;5113399;28;19915;-78
2022/01/31 03:18:41;;;;;;;;;;;5.80;99.90;;;;;;5112830;28;19912;-78
2022/01/31 03:21:06;;;;;;;;;;;5.70;99.90;;;;;;5112612;28;20280;-78
2022/01/31 03:23:34;;;;;;;;;;;5.70;99.90;;;;;;5113108;28;19990;-78
2022/01/31 03:25:59;;;;;;;;;;;5.70;99.90;;;;;;5112170;28;19914;-78
2022/01/31 03:28:25;;;;;;;;;;;5.70;99.90;;;;;;5113270;28;19998;-78
2022/01/31 03:30:51;;;;;;;;;;;5.70;99.90;;;;;;5112224;28;20241;-77
2022/01/31 03:33:17;;;;;;;;;;;5.70;99.90;;;;;;5113200;28;19947;-78
2022/01/31 03:35:42;;;;;;;;;;;5.60;99.90;;;;;;5113275;28;19908;-78
2022/01/31 03:38:08;;;;;;;;;;;5.60;99.90;;;;;;5111966;28;19916;-77
2022/01/31 03:40:33;;;;;;;;;;;5.60;99.90;;;;;;5094774;28;20323;-78
2022/01/31 03:42:59;;;;;;;;;;;5.60;99.90;;;;;;5112289;28;20006;-78
2022/01/31 03:45:25;;;;;;;;;;;5.50;99.90;;;;;;5113542;28;20341;-78
2022/01/31 03:47:50;;;;;;;;;;;5.50;99.90;;;;;;5111893;28;19957;-78
2022/01/31 03:50:17;;;;;;;;;;;5.50;99.90;;;;;;5099441;28;19964;-79
2022/01/31 03:52:43;;;;;;;;;;;5.50;99.90;;;;;;5150421;28;19914;-78
2022/01/31 03:55:10;;;;;;;;;;;5.50;99.90;;;;;;5132374;28;20002;-78
2022/01/31 03:57:35;;;;;;;;;;;5.50;99.90;;;;;;5140896;28;19918;-78
2022/01/31 04:00:04;;;;;;;;;;;5.50;99.90;;;;;;5127961;28;20360;-78
2022/01/31 04:02:30;;;;;;;;;;;5.60;99.90;;;;;;5136844;28;20368;-78
2022/01/31 04:04:55;;;;;;;;;;;5.70;99.90;;;;;;5134271;28;19907;-78
2022/01/31 04:07:21;;;;;;;;;;;5.70;99.90;;;;;;5134522;28;19907;-78
2022/01/31 04:09:46;;;;;;;;;;;5.80;99.90;;;;;;5132719;28;19935;-75
2022/01/31 04:12:12;;;;;;;;;;;5.80;99.90;;;;;;5132891;28;19953;-78
2022/01/31 04:14:38;;;;;;;;;;;5.80;99.90;;;;;;5133561;28;20302;-78
2022/01/31 04:17:07;;;;;;;;;;;5.70;99.90;;;;;;5132398;28;19907;-77
2022/01/31 04:19:33;;;;;;;;;;;5.80;99.90;;;;;;5133062;28;20419;-78
2022/01/31 04:21:58;;;;;;;;;;;5.70;99.90;;;;;;5132117;28;19947;-78
2022/01/31 04:24:31;;;;;;;;;;;5.70;99.90;;;;;;5133038;28;19919;-77
2022/01/31 04:27:05;;;;;;;;;;;5.60;99.90;;;;;;5132339;28;19915;-77
2022/01/31 04:29:33;;;;;;;;;;;5.60;99.90;;;;;;5133145;28;20043;-78
2022/01/31 04:31:59;;;;;;;;;;;5.60;99.90;;;;;;5131906;28;19915;-77
2022/01/31 04:34:25;;;;;;;;;;;5.60;99.90;;;;;;5132863;28;20272;-78
2022/01/31 04:36:50;;;;;;;;;;;5.50;99.90;;;;;;5132588;28;19908;-75
2022/01/31 04:39:18;;;;;;;;;;;5.50;99.90;;;;;;5132709;28;20390;-78
2022/01/31 04:41:45;;;;;;;;;;;5.50;99.90;;;;;;5116214;27;19912;-78
2022/01/31 04:44:11;;;;;;;;;;;5.50;99.90;;;;;;5136045;27;19903;-78
2022/01/31 04:46:37;;;;;;;;;;;5.50;99.90;;;;;;5118536;27;20306;-79
2022/01/31 04:49:03;;;;;;;;;;;5.50;99.90;;;;;;5136078;27;19961;-79
2022/01/31 04:51:28;;;;;;;;;;;5.50;99.90;;;;;;5121135;27;20283;-78
2022/01/31 04:53:54;;;;;;;;;;;5.60;99.90;;;;;;5115151;28;19999;-78
2022/01/31 04:56:19;;;;;;;;;;;5.60;99.90;;;;;;5115929;28;19968;-79
2022/01/31 04:58:45;;;;;;;;;;;5.60;99.90;;;;;;5115918;28;19912;-80
2022/01/31 05:01:11;;;;;;;;;;;5.70;99.90;;;;;;5115116;28;20028;-79
2022/01/31 05:03:36;;;;;;;;;;;5.70;99.90;;;;;;5115897;28;20324;-78
2022/01/31 05:06:02;;;;;;;;;;;5.70;99.90;;;;;;5114875;28;19911;-78
2022/01/31 05:08:29;;;;;;;;;;;5.70;99.90;;;;;;5115864;28;20048;-78
2022/01/31 05:10:55;;;;;;;;;;;5.70;99.90;;;;;;5121595;28;19912;-77
2022/01/31 05:13:21;;;;;;;;;;;5.80;99.90;;;;;;5127121;28;19914;-78
2022/01/31 05:15:46;;;;;;;;;;;5.70;99.90;;;;;;5115705;28;19908;-79
2022/01/31 05:18:12;;;;;;;;;;;5.80;99.90;;;;;;5114716;28;19912;-79
2022/01/31 05:20:38;;;;;;;;;;;5.80;99.90;;;;;;5115206;28;19912;-79
2022/01/31 05:23:05;;;;;;;;;;;5.80;99.90;;;;;;5114421;28;20016;-78
2022/01/31 05:25:30;;;;;;;;;;;5.80;99.90;;;;;;5115414;28;19908;-79
2022/01/31 05:27:56;;;;;;;;;;;5.80;99.90;;;;;;5114203;28;19911;-77
2022/01/31 05:30:23;;;;;;;;;;;5.80;99.90;;;;;;5115365;28;20006;-78
2022/01/31 05:32:49;;;;;;;;;;;5.80;99.90;;;;;;5115031;28;19908;-79
2022/01/31 05:35:14;;;;;;;;;;;5.80;99.90;;;;;;5114187;28;20571;-79
2022/01/31 05:37:41;;;;;;;;;;;5.80;99.90;;;;;;5115256;28;20018;-79
2022/01/31 05:40:07;;;;;;;;;;;5.80;99.90;;;;;;5114561;28;19912;-79
2022/01/31 05:42:33;;;;;;;;;;;5.80;99.90;;;;;;5114797;28;20053;-79
2022/01/31 05:44:58;;;;;;;;;;;5.80;99.90;;;;;;5114335;28;19907;-78
2022/01/31 05:47:24;;;;;;;;;;;5.70;99.90;;;;;;5114683;28;20280;-79
2022/01/31 05:49:50;;;;;;;;;;;5.70;99.90;;;;;;5114709;28;19958;-79
2022/01/31 05:52:15;;;;;;;;;;;5.60;99.90;;;;;;5113571;28;20501;-79
2022/01/31 05:54:41;;;;;;;;;;;5.50;99.90;;;;;;5113906;28;19929;-79
2022/01/31 05:57:07;;;;;;;;;;;5.50;99.90;;;;;;5113723;28;19908;-79
2022/01/31 05:59:33;;;;;;;;;;;5.50;99.90;;;;;;5114482;28;19969;-79
2022/01/31 06:02:01;;;;;;;;;;;5.50;99.90;;;;;;5113841;28;19915;-79
2022/01/31 06:04:32;;;;;;;;;;;5.50;99.90;;;;;;5096592;28;19973;-79
2022/01/31 06:06:58;;;;;;;;;;;5.40;99.90;;;;;;5113840;28;19919;-77
2022/01/31 06:09:26;;;;;;;;;;;5.40;99.90;;;;;;5096016;28;20296;-78
2022/01/31 06:11:52;;;;;;;;;;;5.40;99.90;;;;;;5114509;28;19908;-79
2022/01/31 06:14:18;;;;;;;;;;;5.30;99.90;;;;;;5113584;28;19912;-79
2022/01/31 06:16:43;;;;;;;;;;;5.20;99.90;;;;;;5114173;28;19916;-79
2022/01/31 06:19:09;;;;;;;;;;;5.20;99.90;;;;;;5113047;28;19912;-78
2022/01/31 06:21:35;;;;;;;;;;;5.10;99.90;;;;;;5114176;28;19912;-78
2022/01/31 06:24:00;;;;;;;;;;;5.10;99.90;;;;;;5113615;28;20272;-78
2022/01/31 06:26:28;;;;;;;;;;;5.10;99.90;;;;;;5118288;28;19914;-78
2022/01/31 06:28:53;;;;;;;;;;;5.00;99.90;;;;;;5132934;28;19892;-79
2022/01/31 06:31:19;;;;;;;;;;;5.00;99.90;;;;;;5113274;28;19918;-79
2022/01/31 06:33:44;;;;;;;;;;;5.00;99.90;;;;;;5122236;28;20288;-79
2022/01/31 06:36:10;;;;;;;;;;;4.90;99.90;;;;;;5124517;28;19915;-79
2022/01/31 06:38:38;;;;;;;;;;;4.90;99.90;;;;;;5113649;28;19911;-79
2022/01/31 06:41:04;;;;;;;;;;;4.90;99.90;;;;;;5113241;28;19912;-78
2022/01/31 06:43:30;;;;;;;;;;;4.90;99.90;;;;;;5114070;28;19908;-79
2022/01/31 06:45:55;;;;;;;;;;;4.90;99.90;;;;;;5113586;28;20006;-79
2022/01/31 06:48:21;;;;;;;;;;;4.90;99.90;;;;;;5112807;28;20345;-79
2022/01/31 06:50:46;;;;;;;;;;;4.90;99.90;;;;;;5113705;28;19920;-79
2022/01/31 06:53:13;;;;;;;;;;;5.00;99.90;;;;;;5112942;28;19915;-79
2022/01/31 06:55:39;;;;;;;;;;;5.00;99.90;;;;;;5113654;28;19908;-77
2022/01/31 06:58:04;;;;;;;;;;;5.00;99.90;;;;;;5113065;28;19916;-77
2022/01/31 07:00:30;;;;;;;;;;;5.00;99.90;;;;;;5113737;28;19919;-78
2022/01/31 07:02:56;;;;;;;;;;;5.00;99.90;;;;;;5113472;28;20268;-78
2022/01/31 07:05:22;;;;;;;;;;;5.10;99.90;;;;;;5112272;28;19916;-78
2022/01/31 07:07:48;;;;;;;;;;;5.20;99.90;;;;;;5112969;28;20356;-78
2022/01/31 07:10:14;;;;;;;;;;;5.20;99.90;;;;;;5094355;28;20052;-78
2022/01/31 07:12:41;;;;;;;;;;;5.20;99.90;;;;;;5113094;28;19965;-78
2022/01/31 07:15:08;;;;;;;;;;;5.20;99.90;;;;;;5112387;28;19907;-77
2022/01/31 07:17:35;;;;;;;;;;;5.20;99.90;;;;;;5112877;28;20364;-78
2022/01/31 07:20:03;;;;;;;;;;;5.20;99.90;;;;;;5112844;28;20024;-75
2022/01/31 07:22:34;;;;;;;;;;;5.20;99.90;;;;;;5113235;28;19950;-78
2022/01/31 07:25:03;;;;;;;;;;;5.20;99.90;;;;;;5112881;28;19914;-75
2022/01/31 07:27:29;;;;;;;;;;;5.10;99.90;;;;;;5113089;28;19908;-78
2022/01/31 07:29:54;;;;;;;;;;;5.10;99.90;;;;;;5113270;28;20017;-78
2022/01/31 07:32:20;;;;;;;;;;;5.10;99.90;;;;;;5111750;28;19943;-78
2022/01/31 07:34:46;;;;;;;;;;;5.10;99.90;;;;;;5112749;28;19908;-77
2022/01/31 07:37:12;;;;;;;;;;;5.00;99.90;;;;;;5093813;28;19957;-78
2022/01/31 07:39:42;;;;;;;;;;;5.00;99.90;;;;;;5112530;28;19912;-79
2022/01/31 07:42:08;;;;;;;;;;;5.00;99.90;;;;;;5127656;28;19908;-77
2022/01/31 07:44:34;;;;;;;;;;;5.00;99.90;;;;;;5112588;28;19919;-78
2022/01/31 07:47:00;;;;;;;;;;;5.00;99.90;;;;;;5112603;28;20352;-77
2022/01/31 07:49:25;;;;;;;;;;;5.00;99.90;;;;;;5112409;28;19908;-78
2022/01/31 07:51:52;;;;;;;;;;;5.00;99.90;;;;;;5112400;28;19958;-79
2022/01/31 07:54:18;;;;;;;;;;;5.10;99.90;;;;;;5111748;28;19914;-79
2022/01/31 07:56:44;;;;;;;;;;;5.10;99.90;;;;;;5094132;28;19911;-79
2022/01/31 07:59:09;;;;;;;;;;;5.10;99.90;;;;;;5111533;28;20044;-79
2022/01/31 08:01:35;;;;;;;;;;;5.20;99.90;;;;;;5112943;28;19919;-79
2022/01/31 08:04:00;;;;;;;;;;;5.20;99.90;;;;;;5113196;28;19907;-79
2022/01/31 08:06:26;;;;;;;;;;;5.20;99.90;;;;;;5094917;28;19908;-79
2022/01/31 08:08:51;;;;;;;;;;;5.20;99.90;;;;;;5130300;28;19908;-78
2022/01/31 08:11:17;;;;;;;;;;;5.30;99.90;;;;;;5116040;28;20379;-78
2022/01/31 08:13:43;;;;;;;;;;;5.30;99.90;;;;;;5114336;28;19915;-78
2022/01/31 08:18:34;;;;;;;;;;;5.30;99.90;;;;;;5117204;28;19967;-78
2022/01/31 08:21:03;;;;;;;;;;;5.30;99.90;;;;;;5116692;28;19919;-79
2022/01/31 08:23:29;;;;;;;;;;;5.40;99.90;;;;;;5115996;28;19952;-77
2022/01/31 08:25:54;;;;;;;;;;;5.40;99.90;;;;;;5116522;28;19919;-77
2022/01/31 08:28:29;;;;;;;;;;;5.40;99.90;;;;;;5115328;28;19915;-77
2022/01/31 08:31:02;;;;;;;;;;;5.40;99.90;;;;;;5116257;28;19912;-78
2022/01/31 08:36:23;;;;;;;;;;;5.40;99.90;;;;;;5059606;28;19915;-78
2022/01/31 08:38:49;;;;;;;;;;;5.40;99.90;;;;;;5116093;28;20086;-78
2022/01/31 08:41:14;;;;;;;;;;;5.40;99.90;;;;;;5115757;28;20276;-78
2022/01/31 08:43:41;;;;;;;;;;;5.40;99.90;;;;;;5116151;28;19908;-80
2022/01/31 08:46:07;;;;;;;;;;;5.40;99.90;;;;;;5115734;28;19915;-77
2022/01/31 08:48:33;;;;;;;;;;;5.50;99.90;;;;;;5115720;28;19908;-80
2022/01/31 08:50:59;;;;;;;;;;;5.60;99.90;;;;;;5126661;27;19919;-79
2022/01/31 08:53:25;;;;;;;;;;;5.60;99.90;;;;;;5135438;27;19930;-79
2022/01/31 08:55:51;;;;;;;;;;;5.70;99.90;;;;;;5149761;27;19915;-76
2022/01/31 08:58:17;;;;;;;;;;;5.80;99.90;;;;;;5125038;27;19911;-77
2022/01/31 09:00:47;;;;;;;;;;;5.90;99.90;;;;;;5122148;27;20416;-78
2022/01/31 09:05:38;;;;;;;;;;;6.00;99.90;;;;;;5119663;27;19914;-78
2022/01/31 09:08:04;;;;;;;;;;;6.10;99.90;;;;;;5135744;27;19911;-78
2022/01/31 09:10:30;;;;;;;;;;;6.10;99.90;;;;;;5135268;27;20340;-79
2022/01/31 09:12:56;;;;;;;;;;;6.20;99.90;;;;;;5135578;27;19907;-77
2022/01/31 09:15:22;;;;;;;;;;;6.20;99.90;;;;;;5134894;27;19930;-77
2022/01/31 09:17:47;;;;;;;;;;;6.30;99.90;;;;;;5135491;27;19919;-77
2022/01/31 09:20:13;;;;;;;;;;;6.30;99.90;;;;;;5134798;27;19957;-76
2022/01/31 09:22:41;;;;;;;;;;;6.30;99.90;;;;;;5133028;27;19911;-77
2022/01/31 09:25:06;;;;;;;;;;;6.30;99.90;;;;;;5135861;27;19961;-76
2022/01/31 09:27:33;;;;;;;;;;;6.30;99.90;;;;;;5134892;27;20305;-77
2022/01/31 09:29:59;;;;;;;;;;;6.30;99.90;;;;;;5127322;27;19912;-80
2022/01/31 09:32:25;;;;;;;;;;;6.30;99.90;;;;;;5114911;28;19918;-77
2022/01/31 09:34:51;;;;;;;;;;;6.30;99.90;;;;;;5114472;28;19994;-77
2022/01/31 09:37:19;;;;;;;;;;;6.30;99.90;;;;;;5113341;28;20272;-78
2022/01/31 09:39:46;;;;;;;;;;;6.40;99.90;;;;;;5114660;28;19969;-78
2022/01/31 09:42:14;;;;;;;;;;;6.40;99.90;;;;;;5114043;28;19915;-75
2022/01/31 09:45:09;;;;;;;;;;;6.50;99.90;;;;;;5114749;28;19915;-78
2022/01/31 09:50:19;;;;;;;;;;;6.50;99.90;;;;;;5113636;28;19930;-78
2022/01/31 09:52:45;;;;;;;;;;;6.50;99.90;;;;;;5114018;28;19912;-77
2022/01/31 09:55:11;;;;;;;;;;;6.50;99.90;;;;;;5113803;28;19946;-75
2022/01/31 09:57:36;;;;;;;;;;;6.50;99.90;;;;;;5094542;28;20369;-78
2022/01/31 10:00:03;;;;;;;;;;;6.60;99.90;;;;;;5113979;28;19911;-78
2022/01/31 10:02:29;;;;;;;;;;;6.60;99.90;;;;;;5113219;28;19908;-77
2022/01/31 10:04:54;;;;;;;;;;;6.70;99.90;;;;;;5114161;28;20284;-77
2022/01/31 10:07:21;;;;;;;;;;;6.70;99.90;;;;;;5114561;28;20268;-77
2022/01/31 10:09:48;;;;;;;;;;;6.80;99.90;;;;;;5114341;28;19911;-77
2022/01/31 10:16:24;;;;;;;;;;;6.80;99.90;;;;;;5128172;28;19912;-74
2022/01/31 10:17:58;;;;;;;;;;;6.90;99.90;;;;;;5113794;28;19919;-77
2022/01/31 10:20:31;;;;;;;;;;;7.00;99.90;;;;;;5112948;28;19912;-77
2022/01/31 10:23:09;;;;;;;;;;;7.00;99.90;;;;;;5113823;28;19954;-78
2022/01/31 10:25:35;;;;;;;;;;;7.00;99.90;;;;;;5113174;28;19912;-78
2022/01/31 10:28:01;;;;;;;;;;;7.00;99.90;;;;;;5114601;28;19973;-78
2022/01/31 10:30:28;;;;;;;;;;;7.00;99.90;;;;;;5113759;28;19908;-77
2022/01/31 10:32:54;;;;;;;;;;;7.00;99.90;;;;;;5113636;28;19990;-76
2022/01/31 10:35:22;;;;;;;;;;;7.00;99.90;;;;;;5112875;28;19907;-76
2022/01/31 10:37:49;;;;;;;;;;;7.00;99.90;;;;;;5111726;28;19912;-76
2022/01/31 10:56:52;;;;;;;;;;;7.20;99.90;;;;;;5118666;27;19918;-78
2022/01/31 10:59:19;;;;;;;;;;;7.20;99.90;;;;;;5113445;28;19919;-77
2022/01/31 11:01:52;;;;;;;;;;;7.30;99.90;;;;;;5107674;27;19984;-78
2022/01/31 11:04:18;;;;;;;;;;;7.30;99.90;;;;;;5113459;28;19919;-77
2022/01/31 11:06:48;;;;;;;;;;;7.40;99.90;;;;;;5113829;28;19908;-77
2022/01/31 11:09:18;;;;;;;;;;;7.50;99.90;;;;;;5112512;28;19908;-76
2022/01/31 11:11:45;;;;;;;;;;;7.50;99.90;;;;;;5113008;28;19915;-77
2022/01/31 11:14:11;;;;;;;;;;;7.50;99.90;;;;;;5112691;28;19912;-75
2022/01/31 11:16:38;;;;;;;;;;;7.60;99.90;;;;;;5127759;27;19915;-77
2022/01/31 11:19:09;;;;;;;;;;;7.60;99.90;;;;;;5134121;27;19915;-78
2022/01/31 11:21:44;;;;;;;;;;;7.60;99.90;;;;;;5132966;27;19970;-78
2022/01/31 11:24:18;;;;;;;;;;;7.60;99.90;;;;;;5133333;27;19995;-78
2022/01/31 11:26:47;;;;;;;;;;;7.60;99.90;;;;;;5133480;27;19954;-77
2022/01/31 11:29:13;;;;;;;;;;;7.70;99.90;;;;;;5152571;27;20271;-75
2022/01/31 11:31:39;;;;;;;;;;;7.70;99.90;;;;;;5132798;27;19911;-77
2022/01/31 11:34:05;;;;;;;;;;;7.70;99.90;;;;;;5114480;27;19986;-77
2022/01/31 11:36:34;;;;;;;;;;;7.70;99.90;;;;;;5132509;27;19973;-78
2022/01/31 11:39:02;;;;;;;;;;;7.70;99.90;;;;;;5133322;27;19919;-78
2022/01/31 11:41:27;;;;;;;;;;;7.70;99.90;;;;;;5132580;27;20248;-77
2022/01/31 11:44:02;;;;;;;;;;;7.70;99.90;;;;;;5121524;27;19912;-77
2022/01/31 11:46:28;;;;;;;;;;;7.70;99.90;;;;;;5127331;28;19935;-77
2022/01/31 11:48:54;;;;;;;;;;;7.70;99.90;;;;;;5120871;28;19919;-77
2022/01/31 11:51:21;;;;;;;;;;;7.80;99.90;;;;;;5115184;28;19921;-78
2022/01/31 11:53:47;;;;;;;;;;;7.80;99.90;;;;;;5116578;28;20250;-79
2022/01/31 11:56:22;;;;;;;;;;;7.90;99.90;;;;;;5116295;28;19912;-76
2022/01/31 11:58:52;;;;;;;;;;;7.90;99.90;;;;;;5116925;28;20280;-78
2022/01/31 12:01:18;;;;;;;;;;;8.00;99.90;;;;;;5115196;28;19961;-78
2022/01/31 12:04:04;;;;;;;;;;;8.00;99.90;;;;;;5116828;28;19908;-79
2022/01/31 12:06:29;;;;;;;;;;;8.10;99.90;;;;;;5129984;28;19995;-79
2022/01/31 12:09:05;;;;;;;;;;;8.10;99.90;;;;;;5113438;28;19953;-80
2022/01/31 12:11:51;;;;;;;;;;;8.20;99.90;;;;;;5109064;28;19965;-79
2022/01/31 12:14:24;;;;;;;;;;;8.30;99.90;;;;;;5114917;28;19957;-79
2022/01/31 12:20:14;;;;;;;;;;;8.40;99.90;;;;;;5115149;28;19912;-76
2022/01/31 12:22:05;;;;;;;;;;;8.40;99.90;;;;;;5100761;28;19919;-78
2022/01/31 12:24:32;;;;;;;;;;;8.40;99.90;;;;;;5114982;28;20388;-79
2022/01/31 12:27:07;;;;;;;;;;;8.50;99.90;;;;;;5115614;28;20002;-79
2022/01/31 12:29:34;;;;;;;;;;;8.50;99.90;;;;;;5114974;28;19940;-77
2022/01/31 12:32:05;;;;;;;;;;;8.50;99.90;;;;;;5115353;28;19908;-78
2022/01/31 12:34:33;;;;;;;;;;;8.50;99.90;;;;;;5115196;28;19923;-78
2022/01/31 12:37:22;;;;;;;;;;;8.60;99.90;;;;;;5116056;28;19915;-78
2022/01/31 12:39:57;;;;;;;;;;;8.60;99.90;;;;;;5102685;28;20336;-78
2022/01/31 12:45:27;;;;;;;;;;;8.70;99.90;;;;;;5116556;28;19903;-79
2022/01/31 12:48:16;;;;;;;;;;;8.70;99.90;;;;;;5116880;28;19916;-79
2022/01/31 12:50:51;;;;;;;;;;;8.70;99.90;;;;;;5101795;28;19943;-79
2022/01/31 12:53:22;;;;;;;;;;;8.80;99.90;;;;;;5128020;28;20328;-76
2022/01/31 12:55:58;;;;;;;;;;;8.80;99.90;;;;;;5137317;28;19956;-77
2022/01/31 12:58:35;;;;;;;;;;;8.80;99.90;;;;;;5136608;28;20000;-78
2022/01/31 13:01:11;;;;;;;;;;;8.70;99.90;;;;;;5135336;28;19922;-78
2022/01/31 13:03:37;;;;;;;;;;;8.70;99.90;;;;;;5130572;28;19908;-78
2022/01/31 13:06:03;;;;;;;;;;;8.60;99.90;;;;;;5098875;28;20341;-78
2022/01/31 13:08:29;;;;;;;;;;;8.60;99.90;;;;;;5115020;28;19916;-80
2022/01/31 13:10:55;;;;;;;;;;;8.60;99.90;;;;;;5115535;28;20390;-79
2022/01/31 13:13:36;;;;;;;;;;;8.60;99.90;;;;;;5114618;28;20014;-78
2022/01/31 13:16:07;;;;;;;;;;;8.50;99.90;;;;;;5115702;28;19908;-78
2022/01/31 13:18:33;;;;;;;;;;;8.60;99.90;;;;;;5114530;28;19968;-78
2022/01/31 13:20:59;;;;;;;;;;;8.50;99.90;;;;;;5115134;28;19912;-78
2022/01/31 13:23:26;;;;;;;;;;;8.50;99.90;;;;;;5113446;28;20388;-78
2022/01/31 13:26:02;;;;;;;;;;;8.60;99.90;;;;;;5115420;28;20272;-78
2022/01/31 13:28:28;;;;;;;;;;;8.60;99.90;;;;;;5114246;28;19908;-79
2022/01/31 13:30:54;;;;;;;;;;;8.60;99.90;;;;;;5115383;28;19914;-78
2022/01/31 13:33:19;;;;;;;;;;;8.60;99.90;;;;;;5113149;28;19908;-78
2022/01/31 13:35:47;;;;;;;;;;;8.60;99.90;;;;;;5114797;28;19953;-78
2022/01/31 13:38:15;;;;;;;;;;;8.50;99.90;;;;;;5114648;28;19951;-76
2022/01/31 13:40:44;;;;;;;;;;;8.50;99.90;;;;;;5114147;28;19924;-78
2022/01/31 13:43:12;;;;;;;;;;;8.60;99.90;;;;;;5114178;28;19915;-78
2022/01/31 13:45:48;;;;;;;;;;;8.50;99.90;;;;;;5113726;28;19956;-79
2022/01/31 13:48:30;;;;;;;;;;;8.60;99.90;;;;;;5110914;28;20122;-76
2022/01/31 13:50:59;;;;;;;;;;;8.60;99.90;;;;;;5098752;28;19959;-79
2022/01/31 13:53:31;;;;;;;;;;;8.60;99.90;;;;;;5113667;28;20338;-78
2022/01/31 13:55:58;;;;;;;;;;;8.70;99.90;;;;;;5114243;28;19915;-77
2022/01/31 13:58:26;;;;;;;;;;;8.70;99.90;;;;;;5113391;28;19911;-78
2022/01/31 14:00:52;;;;;;;;;;;8.70;99.90;;;;;;5117428;28;19915;-79
2022/01/31 14:03:18;;;;;;;;;;;8.70;99.90;;;;;;5132993;28;19919;-79
2022/01/31 14:05:51;;;;;;;;;;;8.70;99.90;;;;;;5114347;28;19908;-78
2022/01/31 14:08:17;;;;;;;;;;;8.70;99.90;;;;;;5113729;28;20006;-76
2022/01/31 14:10:44;;;;;;;;;;;8.70;99.90;;;;;;5113025;28;20004;-79
2022/01/31 14:13:11;;;;;;;;;;;8.80;99.90;;;;;;5114038;28;19961;-79
2022/01/31 14:15:46;;;;;;;;;;;8.80;99.90;;;;;;5112549;28;19914;-79
2022/01/31 14:18:15;;;;;;;;;;;8.80;99.90;;;;;;5114176;28;20344;-79
2022/01/31 14:20:41;;;;;;;;;;;8.80;99.90;;;;;;5113678;28;19918;-79
2022/01/31 14:23:10;;;;;;;;;;;8.80;99.90;;;;;;5113848;28;19912;-79
2022/01/31 14:25:56;;;;;;;;;;;8.90;99.90;;;;;;5100847;28;20526;-80
2022/01/31 14:28:32;;;;;;;;;;;8.90;99.90;;;;;;5092691;28;19908;-79
2022/01/31 14:30:57;;;;;;;;;;;8.90;99.90;;;;;;5093411;28;19999;-79
2022/01/31 14:33:23;;;;;;;;;;;8.90;99.90;;;;;;5092720;28;19944;-81
2022/01/31 14:35:50;;;;;;;;;;;8.90;99.90;;;;;;5112877;28;19920;-79
2022/01/31 14:38:22;;;;;;;;;;;8.90;99.90;;;;;;5098249;28;19916;-77
2022/01/31 14:49:08;;;;;;;;;;;8.90;99.90;;;;;;5093466;28;20413;-79
2022/01/31 14:51:36;;;;;;;;;;;8.90;99.90;;;;;;5090666;28;19943;-81
2022/01/31 14:54:06;;;;;;;;;;;8.90;99.90;;;;;;5093086;28;19908;-81
2022/01/31 14:56:32;;;;;;;;;;;8.90;99.90;;;;;;5092041;28;19986;-79
2022/01/31 14:58:59;;;;;;;;;;;8.80;99.90;;;;;;5092723;28;20338;-81
2022/01/31 15:01:24;;;;;;;;;;;8.80;99.90;;;;;;5091714;28;19935;-81
2022/01/31 15:03:50;;;;;;;;;;;8.80;99.90;;;;;;5092144;28;20000;-80
2022/01/31 15:06:16;;;;;;;;;;;8.80;99.90;;;;;;5092039;28;19908;-80
2022/01/31 15:08:41;;;;;;;;;;;8.80;99.90;;;;;;5091012;28;19919;-80
2022/01/31 15:11:09;;;;;;;;;;;8.80;99.90;;;;;;5092444;28;19908;-80
2022/01/31 15:13:36;;;;;;;;;;;8.80;99.90;;;;;;5091573;28;20006;-81
2022/01/31 15:16:06;;;;;;;;;;;8.70;99.90;;;;;;5092757;28;19909;-82